Time;durP1;ratioP1;P1;durP2;ratioP2;P2;SDS_P1;SDS_P2;PMS_P1;PMS_P2;Temp;Humidity;BMP_temperature;BMP_pressure;BME280_temperature;BME280_humidity;BME280_pressure;Samples;Min_cycle;Max_cycle;Signal;HPM_P1;HPM_P2
2022/03/06 00:01:52;;;;;;;1.07;0.97;;;0.50;99.90;;;;;;4918554;29;20450;-71
2022/03/06 00:04:18;;;;;;;0.83;0.70;;;0.50;99.90;;;;;;4918705;29;20179;-74
2022/03/06 00:06:43;;;;;;;0.70;0.40;;;0.50;99.90;;;;;;4918834;29;20406;-71
2022/03/06 00:09:09;;;;;;;0.70;0.50;;;0.40;99.90;;;;;;4918793;29;20196;-72
2022/03/06 00:11:34;;;;;;;0.70;0.50;;;0.40;99.90;;;;;;4918359;29;20624;-72
2022/03/06 00:14:00;;;;;;;0.70;0.50;;;0.40;99.90;;;;;;4918592;29;20195;-72
2022/03/06 00:16:25;;;;;;;0.70;0.50;;;0.30;99.90;;;;;;4918350;29;20214;-72
2022/03/06 00:18:51;;;;;;;0.80;0.60;;;0.30;99.90;;;;;;4918482;29;20536;-72
2022/03/06 00:21:16;;;;;;;0.70;0.40;;;0.20;99.90;;;;;;4918020;29;20732;-71
2022/03/06 00:23:42;;;;;;;0.70;0.50;;;0.20;99.90;;;;;;4918142;29;20211;-71
2022/03/06 00:26:07;;;;;;;4.93;2.43;;;0.20;99.90;;;;;;4932925;29;20175;-72
2022/03/06 00:28:33;;;;;;;0.70;0.47;;;0.20;99.90;;;;;;4918360;29;20171;-71
2022/03/06 00:30:59;;;;;;;1.77;0.90;;;0.10;99.90;;;;;;4918086;29;20171;-71
2022/03/06 00:33:24;;;;;;;0.70;0.50;;;0.10;99.90;;;;;;4917901;29;20736;-72
2022/03/06 00:35:50;;;;;;;0.70;0.50;;;0.10;99.90;;;;;;4918097;29;20168;-71
2022/03/06 00:38:16;;;;;;;0.70;0.60;;;0.00;99.90;;;;;;4918067;29;20612;-71
2022/03/06 00:40:44;;;;;;;0.70;0.50;;;0.00;99.90;;;;;;4917956;29;20178;-71
2022/03/06 00:43:09;;;;;;;0.70;0.50;;;0.00;99.90;;;;;;4917775;29;20563;-71
2022/03/06 00:45:35;;;;;;;0.70;0.50;;;0.00;99.90;;;;;;4932695;28;20514;-72
2022/03/06 00:48:00;;;;;;;0.70;0.50;;;-0.10;99.90;;;;;;4917060;29;20199;-72
2022/03/06 00:50:26;;;;;;;0.80;0.80;;;-0.10;99.90;;;;;;4917731;29;20179;-71
2022/03/06 00:52:56;;;;;;;0.70;0.50;;;-0.10;99.90;;;;;;4928977;28;20200;-71
2022/03/06 00:55:22;;;;;;;5.97;2.10;;;-0.10;99.90;;;;;;4899069;29;20590;-72
2022/03/06 00:57:47;;;;;;;0.70;0.50;;;-0.20;99.90;;;;;;4898927;29;20428;-72
2022/03/06 01:00:14;;;;;;;1.87;1.37;;;-0.20;99.90;;;;;;4898505;29;20197;-72
2022/03/06 01:02:39;;;;;;;0.70;0.50;;;-0.20;99.90;;;;;;4898931;29;20207;-72
2022/03/06 01:05:05;;;;;;;0.70;0.40;;;-0.20;99.90;;;;;;4903969;29;20428;-71
2022/03/06 01:07:30;;;;;;;1.43;1.27;;;-0.20;99.90;;;;;;4917559;29;20168;-72
2022/03/06 01:09:56;;;;;;;0.70;0.40;;;-0.30;99.90;;;;;;4917503;29;20412;-72
2022/03/06 01:12:22;;;;;;;0.70;0.40;;;-0.30;99.90;;;;;;4917576;29;20194;-71
2022/03/06 01:14:48;;;;;;;1.47;1.30;;;-0.30;99.90;;;;;;4917524;29;20258;-72
2022/03/06 01:17:14;;;;;;;0.70;0.50;;;-0.30;99.90;;;;;;4916000;29;20434;-72
2022/03/06 01:19:40;;;;;;;0.73;0.50;;;-0.30;99.90;;;;;;4917171;29;20416;-71
2022/03/06 01:22:05;;;;;;;1.07;0.70;;;-0.40;99.90;;;;;;4917118;29;20196;-72
2022/03/06 01:24:31;;;;;;;0.83;0.70;;;-0.40;99.90;;;;;;4931798;28;20173;-72
2022/03/06 01:26:56;;;;;;;0.70;0.50;;;-0.40;99.90;;;;;;4916970;29;20207;-71
2022/03/06 01:29:22;;;;;;;0.80;0.67;;;-0.50;99.90;;;;;;4917319;29;20236;-72
2022/03/06 01:31:48;;;;;;;0.70;0.43;;;-0.50;99.90;;;;;;4917054;29;20567;-71
2022/03/06 01:34:14;;;;;;;0.70;0.50;;;-0.50;99.90;;;;;;4917059;29;20853;-71
2022/03/06 01:36:40;;;;;;;0.70;0.60;;;-0.50;99.90;;;;;;4917076;29;20519;-71
2022/03/06 01:39:06;;;;;;;0.70;0.50;;;-0.60;99.90;;;;;;4917288;29;20186;-72
2022/03/06 01:41:35;;;;;;;0.70;0.40;;;-0.60;99.90;;;;;;4917070;29;20693;-72
2022/03/06 01:44:03;;;;;;;0.70;0.40;;;-0.60;99.90;;;;;;4916870;29;20455;-71
2022/03/06 01:46:28;;;;;;;0.70;0.60;;;-0.60;99.90;;;;;;4917103;29;20407;-72
2022/03/06 01:48:54;;;;;;;0.70;0.50;;;-0.60;99.90;;;;;;4916705;29;20435;-71
2022/03/06 01:51:19;;;;;;;1.77;0.93;;;-0.70;99.90;;;;;;4917098;29;20254;-72
2022/03/06 01:53:45;;;;;;;1.60;1.50;;;-0.70;99.90;;;;;;4916792;29;20230;-71
2022/03/06 01:56:12;;;;;;;0.70;0.43;;;-0.70;99.90;;;;;;4916901;29;20176;-72
2022/03/06 01:58:39;;;;;;;1.47;1.27;;;-0.70;99.90;;;;;;4915709;29;20167;-72
2022/03/06 02:01:04;;;;;;;0.80;0.60;;;-0.70;99.90;;;;;;4916302;29;20419;-72
2022/03/06 02:03:30;;;;;;;0.80;0.70;;;-0.70;99.90;;;;;;4917006;29;20448;-71
2022/03/06 02:05:56;;;;;;;0.70;0.50;;;-0.80;99.90;;;;;;4916693;29;20210;-71
2022/03/06 02:08:21;;;;;;;0.70;0.60;;;-0.80;99.90;;;;;;4916626;29;20190;-71
2022/03/06 02:10:49;;;;;;;1.43;1.33;;;-0.80;99.90;;;;;;4916492;29;20251;-72
2022/03/06 02:13:15;;;;;;;1.17;0.83;;;-0.80;99.90;;;;;;4916436;29;20201;-72
2022/03/06 02:15:41;;;;;;;0.70;0.50;;;-0.80;99.90;;;;;;4916612;29;20504;-72
2022/03/06 02:18:07;;;;;;;0.70;0.50;;;-0.80;99.90;;;;;;4916828;29;20172;-71
2022/03/06 02:20:33;;;;;;;0.70;0.50;;;-0.80;99.90;;;;;;4916426;29;20783;-72
2022/03/06 02:22:59;;;;;;;1.03;0.93;;;-0.80;99.90;;;;;;4916649;29;20199;-72
2022/03/06 02:25:35;;;;;;;0.70;0.40;;;-0.80;99.90;;;;;;4916624;29;20479;-72
2022/03/06 02:28:05;;;;;;;0.70;0.40;;;-0.90;99.90;;;;;;4916971;29;20186;-72
2022/03/06 02:30:34;;;;;;;0.70;0.50;;;-0.90;99.90;;;;;;4916633;29;20418;-71
2022/03/06 02:33:05;;;;;;;0.70;0.50;;;-0.90;99.90;;;;;;4916630;29;20443;-72
2022/03/06 02:35:31;;;;;;;0.70;0.60;;;-1.00;99.90;;;;;;4916430;29;20419;-72
2022/03/06 02:37:56;;;;;;;0.70;0.50;;;-1.00;99.90;;;;;;4916586;29;20424;-71
2022/03/06 02:40:22;;;;;;;0.80;0.70;;;-1.00;99.90;;;;;;4916732;29;20408;-71
2022/03/06 02:42:50;;;;;;;0.70;0.50;;;-1.00;99.90;;;;;;4916124;29;20207;-71
2022/03/06 02:45:19;;;;;;;0.80;0.60;;;-1.00;99.90;;;;;;4915765;29;20774;-71
2022/03/06 02:47:45;;;;;;;0.70;0.50;;;-1.00;99.90;;;;;;4916315;29;20439;-72
2022/03/06 02:50:15;;;;;;;0.73;0.60;;;-1.00;99.90;;;;;;4931186;28;20416;-72
2022/03/06 02:52:40;;;;;;;0.70;0.50;;;-1.00;99.90;;;;;;4916593;29;20437;-71
2022/03/06 02:55:07;;;;;;;0.70;0.50;;;-1.10;99.90;;;;;;4916264;29;20586;-71
2022/03/06 02:57:33;;;;;;;2.80;1.70;;;-1.10;99.90;;;;;;4915738;29;20175;-71
2022/03/06 02:59:59;;;;;;;1.40;0.80;;;-1.10;99.90;;;;;;4915109;29;20486;-71
2022/03/06 03:02:24;;;;;;;0.70;0.50;;;-1.10;99.90;;;;;;4915710;29;20218;-71
2022/03/06 03:04:50;;;;;;;1.63;1.53;;;-1.10;99.90;;;;;;4916595;29;20654;-71
2022/03/06 03:07:15;;;;;;;0.70;0.50;;;-1.10;99.90;;;;;;4916737;29;20171;-71
2022/03/06 03:09:41;;;;;;;0.80;0.70;;;-1.00;99.90;;;;;;4916560;29;20191;-71
2022/03/06 03:12:08;;;;;;;0.70;0.43;;;-1.00;99.90;;;;;;4917945;29;20642;-72
2022/03/06 03:14:35;;;;;;;0.70;0.50;;;-1.00;99.90;;;;;;4920900;29;20446;-71
2022/03/06 03:17:02;;;;;;;0.80;0.80;;;-1.00;99.90;;;;;;4920277;29;20412;-71
2022/03/06 03:19:27;;;;;;;0.70;0.43;;;-0.90;99.90;;;;;;4936194;29;20527;-71
2022/03/06 03:21:53;;;;;;;0.70;0.40;;;-0.90;99.90;;;;;;4934103;29;20583;-72
2022/03/06 03:24:19;;;;;;;0.70;0.50;;;-0.90;99.90;;;;;;4919567;29;20176;-72
2022/03/06 03:26:44;;;;;;;0.70;0.50;;;-0.80;99.90;;;;;;4919429;29;20555;-72
2022/03/06 03:29:10;;;;;;;0.70;0.40;;;-0.70;99.90;;;;;;4934412;28;20178;-71
2022/03/06 03:31:35;;;;;;;0.70;0.50;;;-0.60;99.90;;;;;;4919949;29;20167;-71
2022/03/06 03:34:01;;;;;;;0.97;0.73;;;-0.60;99.90;;;;;;4919948;29;20605;-71
2022/03/06 03:36:26;;;;;;;0.70;0.50;;;-0.50;99.90;;;;;;4919571;29;20538;-71
2022/03/06 03:38:52;;;;;;;0.70;0.50;;;-0.40;99.90;;;;;;4919668;29;20191;-71
2022/03/06 03:41:18;;;;;;;0.70;0.40;;;-0.40;99.90;;;;;;4918924;29;20581;-72
2022/03/06 03:43:43;;;;;;;0.70;0.50;;;-0.30;99.90;;;;;;4919371;29;20291;-71
2022/03/06 03:46:09;;;;;;;0.70;0.40;;;-0.30;99.90;;;;;;4920118;29;20630;-71
2022/03/06 03:48:35;;;;;;;0.70;0.43;;;-0.20;99.90;;;;;;4935546;29;20176;-71
2022/03/06 03:51:01;;;;;;;0.70;0.50;;;-0.20;99.90;;;;;;4919230;29;20712;-71
2022/03/06 03:53:26;;;;;;;0.70;0.50;;;-0.10;99.90;;;;;;4918629;29;20210;-72
2022/03/06 03:55:52;;;;;;;0.70;0.50;;;-0.10;99.90;;;;;;4918803;29;20444;-71
2022/03/06 03:58:19;;;;;;;0.70;0.47;;;-0.10;99.90;;;;;;4918738;29;20609;-71
2022/03/06 04:00:45;;;;;;;0.70;0.40;;;-0.10;99.90;;;;;;4918230;29;20431;-72
2022/03/06 04:03:13;;;;;;;1.40;0.70;;;0.00;99.90;;;;;;4918469;29;20463;-72
2022/03/06 04:05:38;;;;;;;0.70;0.40;;;0.00;99.90;;;;;;4918352;29;20438;-71
2022/03/06 04:08:04;;;;;;;0.70;0.50;;;0.00;99.90;;;;;;4918178;29;20514;-71
2022/03/06 04:10:30;;;;;;;1.20;0.80;;;0.00;99.90;;;;;;4917928;29;20921;-71
2022/03/06 04:12:55;;;;;;;0.70;0.50;;;0.00;99.90;;;;;;4917751;29;20290;-71
2022/03/06 04:15:21;;;;;;;1.80;1.70;;;0.00;99.90;;;;;;4918333;29;20179;-71
2022/03/06 04:17:46;;;;;;;0.70;0.50;;;-0.10;99.90;;;;;;4919316;29;20626;-71
2022/03/06 04:20:12;;;;;;;1.90;0.90;;;-0.10;99.90;;;;;;4933735;29;20186;-71
2022/03/06 04:22:38;;;;;;;2.90;1.47;;;-0.10;99.90;;;;;;4932923;29;20353;-71
2022/03/06 04:25:04;;;;;;;0.70;0.40;;;-0.10;99.90;;;;;;4918746;29;20622;-72
2022/03/06 04:27:29;;;;;;;0.70;0.40;;;-0.20;99.90;;;;;;4919156;29;20217;-71
2022/03/06 04:29:55;;;;;;;0.70;0.50;;;-0.20;99.90;;;;;;4917676;29;20884;-71
2022/03/06 04:32:20;;;;;;;0.70;0.60;;;-0.20;99.90;;;;;;4918467;29;20293;-71
2022/03/06 04:34:46;;;;;;;0.70;0.50;;;-0.20;99.90;;;;;;4920343;29;20185;-71
2022/03/06 04:37:12;;;;;;;0.80;0.60;;;-0.20;99.90;;;;;;4919383;28;20180;-71
2022/03/06 04:39:37;;;;;;;0.70;0.47;;;-0.20;99.90;;;;;;4920030;29;20179;-71
2022/03/06 04:42:03;;;;;;;0.73;0.50;;;-0.20;99.90;;;;;;4934630;28;20206;-71
2022/03/06 04:44:29;;;;;;;2.30;2.20;;;-0.20;99.90;;;;;;4934994;28;20223;-71
2022/03/06 04:46:54;;;;;;;0.70;0.43;;;-0.10;99.90;;;;;;4934956;28;20433;-71
2022/03/06 04:49:20;;;;;;;0.70;0.50;;;-0.10;99.90;;;;;;4917531;29;20178;-71
2022/03/06 04:51:45;;;;;;;0.97;0.80;;;-0.10;99.90;;;;;;4917113;29;20187;-71
2022/03/06 04:54:11;;;;;;;0.70;0.40;;;0.00;99.90;;;;;;4917391;29;20195;-71
2022/03/06 04:56:36;;;;;;;0.70;0.40;;;0.00;99.90;;;;;;4917395;29;20188;-71
2022/03/06 04:59:03;;;;;;;0.70;0.50;;;0.10;99.90;;;;;;4933223;28;20556;-71
2022/03/06 05:01:28;;;;;;;0.70;0.50;;;0.20;99.90;;;;;;4919767;29;20195;-71
2022/03/06 05:03:54;;;;;;;0.70;0.50;;;0.20;99.90;;;;;;4934945;29;20448;-71
2022/03/06 05:06:20;;;;;;;0.80;0.63;;;0.20;99.90;;;;;;4920467;29;20235;-71
2022/03/06 05:08:45;;;;;;;2.17;1.00;;;0.30;99.90;;;;;;4934874;29;20196;-71
2022/03/06 05:11:11;;;;;;;0.70;0.60;;;0.30;99.90;;;;;;4934744;29;20549;-71
2022/03/06 05:13:37;;;;;;;0.70;0.47;;;0.30;99.90;;;;;;4919670;29;20207;-72
2022/03/06 05:16:03;;;;;;;1.10;0.97;;;0.30;99.90;;;;;;4919918;29;20258;-71
2022/03/06 05:18:29;;;;;;;0.70;0.40;;;0.40;99.90;;;;;;4919965;29;20198;-71
2022/03/06 05:20:55;;;;;;;0.80;0.73;;;0.40;99.90;;;;;;4919260;29;20518;-72
2022/03/06 05:23:20;;;;;;;0.70;0.47;;;0.40;99.90;;;;;;4919466;29;20223;-71
2022/03/06 05:25:46;;;;;;;0.80;0.60;;;0.40;99.90;;;;;;4920054;29;20248;-71
2022/03/06 05:28:12;;;;;;;1.10;0.90;;;0.40;99.90;;;;;;4919573;29;20176;-71
2022/03/06 05:30:38;;;;;;;0.70;0.50;;;0.40;99.90;;;;;;4918921;29;20491;-71
2022/03/06 05:33:04;;;;;;;0.70;0.50;;;0.50;99.90;;;;;;4919309;29;20440;-71
2022/03/06 05:35:30;;;;;;;0.70;0.57;;;0.50;99.90;;;;;;4917661;29;20537;-72
2022/03/06 05:37:55;;;;;;;0.70;0.50;;;0.50;99.90;;;;;;4917178;29;20173;-72
2022/03/06 05:40:21;;;;;;;0.80;0.60;;;0.50;99.90;;;;;;4932252;29;20224;-71
2022/03/06 05:42:47;;;;;;;0.70;0.50;;;0.50;99.90;;;;;;4932070;29;20217;-72
2022/03/06 05:45:12;;;;;;;0.70;0.50;;;0.50;99.90;;;;;;4932254;28;20176;-71
2022/03/06 05:47:38;;;;;;;1.37;1.27;;;0.50;99.90;;;;;;4918102;29;20167;-72
2022/03/06 05:50:05;;;;;;;0.70;0.50;;;0.50;99.90;;;;;;4917826;29;20170;-72
2022/03/06 05:52:30;;;;;;;0.80;0.60;;;0.50;99.90;;;;;;4933439;28;20204;-71
2022/03/06 05:54:57;;;;;;;0.70;0.50;;;0.50;99.90;;;;;;4933146;28;20951;-72
2022/03/06 05:57:24;;;;;;;0.90;0.70;;;0.40;99.90;;;;;;4916700;29;20175;-71
2022/03/06 05:59:49;;;;;;;0.70;0.40;;;0.40;99.90;;;;;;4916353;29;20420;-71
2022/03/06 06:02:15;;;;;;;1.90;1.80;;;0.40;99.90;;;;;;4915726;29;21003;-71
2022/03/06 06:04:41;;;;;;;0.80;0.60;;;0.40;99.90;;;;;;4916383;29;20373;-72
2022/03/06 06:07:07;;;;;;;0.70;0.50;;;0.40;99.90;;;;;;4916728;29;20255;-71
2022/03/06 06:09:32;;;;;;;0.70;0.50;;;0.50;99.90;;;;;;4917346;29;20183;-72
2022/03/06 06:11:59;;;;;;;0.70;0.50;;;0.50;99.90;;;;;;4917869;29;20961;-71
2022/03/06 06:14:24;;;;;;;0.70;0.47;;;0.50;99.90;;;;;;4918467;29;20512;-71
2022/03/06 06:16:50;;;;;;;0.70;0.40;;;0.50;99.90;;;;;;4933465;28;20192;-71
2022/03/06 06:19:16;;;;;;;0.90;0.90;;;0.50;99.90;;;;;;4918748;29;20187;-71
2022/03/06 06:21:43;;;;;;;1.73;1.57;;;0.50;99.90;;;;;;4918047;29;20670;-71
2022/03/06 06:24:13;;;;;;;1.17;0.73;;;0.50;99.90;;;;;;4918685;29;20246;-71
2022/03/06 06:26:39;;;;;;;1.17;1.07;;;0.50;99.90;;;;;;4918767;29;20427;-71
2022/03/06 06:29:05;;;;;;;0.70;0.43;;;0.50;99.90;;;;;;4918648;29;20404;-71
2022/03/06 06:31:30;;;;;;;0.70;0.47;;;0.50;99.90;;;;;;4916884;29;20412;-72
2022/03/06 06:33:56;;;;;;;1.43;0.90;;;0.50;99.90;;;;;;4916178;29;20203;-72
2022/03/06 06:36:22;;;;;;;0.80;0.70;;;0.60;99.90;;;;;;4915764;29;20262;-71
2022/03/06 06:38:48;;;;;;;0.70;0.40;;;0.60;99.90;;;;;;4916627;29;20507;-71
2022/03/06 06:41:14;;;;;;;0.70;0.50;;;0.70;99.90;;;;;;4932918;28;20419;-71
2022/03/06 06:43:42;;;;;;;0.70;0.50;;;0.70;99.90;;;;;;4918101;29;20455;-71
2022/03/06 06:46:08;;;;;;;1.13;0.60;;;0.80;99.90;;;;;;4917008;29;20176;-71
2022/03/06 06:48:33;;;;;;;2.60;2.50;;;0.80;99.90;;;;;;4920786;29;20450;-72
2022/03/06 06:50:59;;;;;;;1.10;0.77;;;0.90;99.90;;;;;;4934499;28;20419;-72
2022/03/06 06:53:24;;;;;;;0.70;0.50;;;1.00;99.90;;;;;;4919936;29;20198;-72
2022/03/06 06:55:50;;;;;;;1.37;1.27;;;1.10;99.90;;;;;;4935915;28;20184;-71
2022/03/06 06:58:16;;;;;;;0.80;0.50;;;1.20;99.90;;;;;;4920817;29;20184;-72
2022/03/06 07:00:41;;;;;;;1.73;1.63;;;1.30;99.90;;;;;;4934930;28;20182;-71
2022/03/06 07:03:07;;;;;;;0.80;0.70;;;1.40;99.90;;;;;;4922095;29;20565;-72
2022/03/06 07:05:32;;;;;;;0.70;0.43;;;1.50;99.90;;;;;;4921997;29;20172;-72
2022/03/06 07:07:58;;;;;;;1.23;1.00;;;1.70;99.90;;;;;;4921398;29;20186;-72
2022/03/06 07:10:24;;;;;;;0.70;0.50;;;1.80;99.90;;;;;;4921663;29;20582;-72
2022/03/06 07:12:53;;;;;;;0.70;0.50;;;1.90;99.90;;;;;;4921407;29;20285;-72
2022/03/06 07:15:19;;;;;;;2.60;1.17;;;2.00;99.90;;;;;;4921729;29;20252;-72
2022/03/06 07:17:45;;;;;;;1.00;1.00;;;2.20;99.90;;;;;;4919300;29;20463;-72
2022/03/06 07:20:11;;;;;;;0.70;0.50;;;2.30;99.90;;;;;;4919015;29;20415;-72
2022/03/06 07:22:37;;;;;;;0.87;0.83;;;2.50;99.90;;;;;;4918640;29;20616;-72
2022/03/06 07:25:03;;;;;;;0.80;0.60;;;2.70;99.90;;;;;;4918793;29;20483;-72
2022/03/06 07:27:29;;;;;;;0.77;0.60;;;2.80;99.90;;;;;;4919039;29;20171;-72
2022/03/06 07:29:54;;;;;;;1.47;1.37;;;2.90;99.90;;;;;;4919471;29;20408;-73
2022/03/06 07:32:20;;;;;;;0.70;0.50;;;3.00;99.90;;;;;;4920289;29;20567;-72
2022/03/06 07:34:46;;;;;;;1.30;1.20;;;3.00;99.90;;;;;;4921489;29;20198;-72
2022/03/06 07:37:11;;;;;;;0.70;0.50;;;3.10;99.90;;;;;;4920320;29;20564;-72
2022/03/06 07:39:37;;;;;;;0.93;0.90;;;3.20;99.90;;;;;;4920323;29;20687;-72
2022/03/06 07:42:02;;;;;;;0.70;0.50;;;3.30;99.90;;;;;;4919035;29;20286;-72
2022/03/06 07:44:28;;;;;;;0.70;0.50;;;3.40;99.90;;;;;;4918922;29;20743;-72
2022/03/06 07:46:54;;;;;;;0.70;0.50;;;3.50;99.90;;;;;;4920573;29;20179;-72
2022/03/06 07:49:19;;;;;;;0.70;0.50;;;3.60;99.90;;;;;;4920501;29;20168;-72
2022/03/06 07:51:45;;;;;;;1.23;1.13;;;3.80;99.90;;;;;;4920268;29;20172;-72
2022/03/06 07:54:14;;;;;;;0.80;0.60;;;4.40;99.90;;;;;;4920699;29;20396;-72
2022/03/06 07:56:40;;;;;;;2.70;2.50;;;5.20;99.90;;;;;;4920130;29;20500;-72
2022/03/06 07:59:06;;;;;;;1.20;1.10;;;6.20;99.90;;;;;;4920695;29;20902;-73
2022/03/06 08:01:32;;;;;;;3.23;1.00;;;7.00;99.90;;;;;;4920500;29;20414;-72
2022/03/06 08:03:57;;;;;;;2.07;1.17;;;7.80;99.90;;;;;;4935530;29;20559;-73
2022/03/06 08:06:23;;;;;;;2.23;2.03;;;8.50;99.90;;;;;;4920807;29;20215;-73
2022/03/06 08:08:49;;;;;;;1.93;1.83;;;9.30;99.90;;;;;;4920674;29;20231;-73
2022/03/06 08:11:14;;;;;;;2.63;2.43;;;10.00;99.90;;;;;;4921322;29;20191;-73
2022/03/06 08:13:40;;;;;;;2.17;2.03;;;10.80;99.90;;;;;;4921487;29;20657;-71
2022/03/06 08:16:05;;;;;;;1.83;1.60;;;11.60;98.10;;;;;;4918268;29;20183;-71
2022/03/06 08:18:31;;;;;;;3.40;3.20;;;12.40;92.80;;;;;;4918093;29;20669;-71
2022/03/06 08:20:56;;;;;;;3.93;2.27;;;13.10;84.90;;;;;;4917633;29;20179;-71
2022/03/06 08:23:22;;;;;;;2.60;2.17;;;13.90;77.50;;;;;;4918089;29;20211;-72
2022/03/06 08:25:47;;;;;;;6.93;2.43;;;14.60;69.10;;;;;;4934955;29;20175;-72
2022/03/06 08:28:13;;;;;;;2.47;2.27;;;15.40;62.50;;;;;;4920728;29;20317;-72
2022/03/06 08:30:39;;;;;;;3.80;2.80;;;16.20;59.40;;;;;;4921149;29;20176;-72
2022/03/06 08:33:04;;;;;;;5.00;4.50;;;16.90;58.20;;;;;;4920923;29;20533;-72
2022/03/06 08:35:30;;;;;;;3.53;3.23;;;17.60;54.70;;;;;;4920422;29;20195;-72
2022/03/06 08:37:56;;;;;;;5.73;3.37;;;18.30;52.40;;;;;;4935028;29;20649;-72
2022/03/06 08:40:22;;;;;;;1.90;1.50;;;19.10;53.30;;;;;;4920329;29;20219;-72
2022/03/06 08:42:48;;;;;;;5.57;2.80;;;19.80;51.00;;;;;;4919486;29;20233;-72
2022/03/06 08:45:14;;;;;;;2.90;2.63;;;20.40;48.70;;;;;;4934447;28;20420;-72
2022/03/06 08:47:39;;;;;;;5.93;2.83;;;20.90;47.30;;;;;;4919754;29;20168;-72
2022/03/06 08:50:06;;;;;;;3.83;2.70;;;21.40;46.00;;;;;;4919624;29;20172;-72
2022/03/06 08:52:31;;;;;;;4.70;3.77;;;21.60;44.20;;;;;;4919515;29;20696;-72
2022/03/06 08:54:57;;;;;;;4.00;2.63;;;22.10;43.80;;;;;;4919788;29;20411;-72
2022/03/06 08:57:23;;;;;;;5.97;4.00;;;22.60;43.10;;;;;;4918311;29;20175;-72
2022/03/06 08:59:50;;;;;;;4.50;3.60;;;22.60;40.60;;;;;;4919490;29;20192;-72
2022/03/06 09:02:15;;;;;;;3.40;1.77;;;22.60;39.80;;;;;;4918650;29;20459;-72
2022/03/06 09:04:41;;;;;;;3.90;3.57;;;22.80;40.20;;;;;;4934186;28;20418;-73
2022/03/06 09:07:06;;;;;;;5.73;2.40;;;23.20;39.00;;;;;;4919870;29;20272;-72
2022/03/06 09:09:32;;;;;;;3.90;2.57;;;23.30;38.30;;;;;;4918499;29;20187;-73
2022/03/06 09:11:58;;;;;;;6.17;4.47;;;23.50;37.90;;;;;;4919495;29;20180;-72
2022/03/06 09:14:23;;;;;;;4.13;3.73;;;23.30;37.40;;;;;;4919248;29;20183;-72
2022/03/06 09:16:49;;;;;;;3.63;3.10;;;23.00;37.00;;;;;;4919609;29;20214;-72
2022/03/06 09:19:14;;;;;;;2.63;1.80;;;22.70;37.10;;;;;;4919706;29;20178;-72
2022/03/06 09:21:43;;;;;;;3.13;2.20;;;22.40;37.60;;;;;;4919651;29;20175;-72
2022/03/06 09:24:09;;;;;;;5.17;3.13;;;22.00;37.60;;;;;;4918834;29;20191;-72
2022/03/06 09:26:35;;;;;;;6.57;4.97;;;21.50;37.60;;;;;;4931853;29;20434;-72
2022/03/06 09:29:01;;;;;;;3.30;3.00;;;21.30;38.30;;;;;;4919441;29;20479;-72
2022/03/06 09:31:27;;;;;;;5.30;3.67;;;21.20;38.00;;;;;;4934482;28;20176;-72
2022/03/06 09:33:53;;;;;;;2.23;2.03;;;21.10;38.10;;;;;;4919981;29;20219;-72
2022/03/06 09:36:18;;;;;;;4.17;3.10;;;21.10;37.90;;;;;;4919481;29;20754;-72
2022/03/06 09:38:44;;;;;;;5.33;2.67;;;21.00;37.70;;;;;;4919481;29;20216;-72
2022/03/06 09:41:15;;;;;;;3.90;2.70;;;20.90;37.40;;;;;;4919399;29;20207;-72
2022/03/06 09:43:41;;;;;;;4.73;3.47;;;20.70;37.50;;;;;;4933507;28;20306;-72
2022/03/06 09:46:08;;;;;;;3.80;3.03;;;20.80;38.10;;;;;;4919827;29;20466;-72
2022/03/06 09:48:34;;;;;;;2.67;2.47;;;20.70;37.30;;;;;;4919225;29;20802;-72
2022/03/06 09:51:04;;;;;;;9.00;3.40;;;20.80;37.80;;;;;;4919238;29;20938;-72
2022/03/06 09:53:30;;;;;;;3.00;2.80;;;20.80;37.90;;;;;;4919129;29;20921;-72
2022/03/06 09:55:56;;;;;;;3.77;3.00;;;20.80;37.50;;;;;;4933558;29;20423;-72
2022/03/06 09:58:23;;;;;;;3.70;3.40;;;21.00;37.50;;;;;;4919495;29;20541;-72
2022/03/06 10:00:48;;;;;;;3.63;2.57;;;21.20;37.00;;;;;;4919197;29;20502;-72
2022/03/06 10:03:19;;;;;;;4.37;2.57;;;21.50;36.50;;;;;;4919020;29;20972;-72
2022/03/06 10:05:44;;;;;;;1.93;1.53;;;21.60;35.80;;;;;;4934078;28;20680;-72
2022/03/06 10:08:22;;;;;;;4.73;2.87;;;21.50;35.70;;;;;;4919020;29;20428;-72
2022/03/06 10:10:53;;;;;;;3.83;2.80;;;21.40;35.70;;;;;;4933627;28;20171;-72
2022/03/06 10:13:26;;;;;;;8.83;2.80;;;21.30;35.20;;;;;;4919070;29;20866;-72
2022/03/06 10:16:16;;;;;;;6.47;2.40;;;21.10;35.80;;;;;;4917565;29;20470;-72
2022/03/06 10:18:49;;;;;;;7.63;3.50;;;21.10;36.10;;;;;;4918943;29;20504;-72
2022/03/06 10:21:20;;;;;;;4.97;2.30;;;21.20;35.80;;;;;;4918895;29;20415;-72
2022/03/06 10:23:48;;;;;;;3.43;2.63;;;21.90;36.10;;;;;;4933508;28;20464;-72
2022/03/06 10:26:15;;;;;;;9.30;2.93;;;22.60;35.60;;;;;;4918944;29;20416;-72
2022/03/06 10:28:57;;;;;;;3.43;2.63;;;23.20;34.50;;;;;;4919393;29;20408;-73
2022/03/06 10:31:24;;;;;;;4.00;2.67;;;23.50;33.80;;;;;;4918793;29;20475;-73
2022/03/06 10:33:57;;;;;;;2.93;2.30;;;23.70;33.50;;;;;;4917607;29;20436;-73
2022/03/06 10:36:33;;;;;;;3.73;2.87;;;23.80;32.70;;;;;;4918908;29;20435;-72
2022/03/06 10:38:58;;;;;;;3.77;3.47;;;23.70;32.60;;;;;;4917408;28;20407;-73
2022/03/06 10:41:38;;;;;;;3.87;2.93;;;24.00;32.70;;;;;;4918422;29;20451;-72
2022/03/06 10:44:04;;;;;;;2.50;2.30;;;25.20;33.20;;;;;;4919198;29;20616;-73
2022/03/06 10:46:33;;;;;;;2.90;1.83;;;26.00;31.90;;;;;;4919369;29;20418;-72
2022/03/06 10:49:01;;;;;;;4.20;3.80;;;27.00;31.60;;;;;;4919590;29;20422;-73
2022/03/06 10:51:28;;;;;;;5.37;3.83;;;27.90;30.40;;;;;;4918853;29;20495;-72
2022/03/06 10:53:55;;;;;;;4.67;3.27;;;28.50;30.20;;;;;;4919188;29;20438;-73
2022/03/06 10:56:21;;;;;;;3.80;3.50;;;28.60;29.80;;;;;;4919070;29;20403;-73
2022/03/06 10:58:48;;;;;;;3.80;3.07;;;28.40;29.50;;;;;;4918755;29;20451;-73
2022/03/06 11:01:14;;;;;;;3.13;2.37;;;28.10;29.40;;;;;;4918784;29;20404;-73
2022/03/06 11:03:40;;;;;;;5.70;3.50;;;27.70;29.50;;;;;;4918444;29;20495;-72
2022/03/06 11:06:07;;;;;;;3.70;2.50;;;27.50;29.60;;;;;;4918822;29;20403;-73
2022/03/06 11:08:34;;;;;;;3.13;2.83;;;27.40;29.40;;;;;;4919068;29;20430;-72
2022/03/06 11:11:03;;;;;;;2.97;2.67;;;27.40;29.50;;;;;;4918929;29;20408;-73
2022/03/06 11:13:29;;;;;;;5.27;3.47;;;27.60;29.80;;;;;;4918362;29;20455;-73
2022/03/06 11:15:56;;;;;;;4.90;4.40;;;28.10;29.90;;;;;;4918666;29;20462;-73
2022/03/06 11:18:23;;;;;;;5.00;3.90;;;29.10;29.60;;;;;;4919209;29;20773;-73
2022/03/06 11:20:49;;;;;;;3.63;3.30;;;30.10;29.60;;;;;;4918946;29;20411;-73
2022/03/06 11:23:37;;;;;;;4.00;3.37;;;30.40;28.90;;;;;;4918225;29;20502;-73
2022/03/06 11:26:05;;;;;;;2.53;2.20;;;30.80;28.70;;;;;;4918128;29;20191;-73
2022/03/06 11:28:58;;;;;;;5.00;3.90;;;31.90;28.60;;;;;;4918544;29;20498;-71
2022/03/06 11:31:23;;;;;;;4.83;4.33;;;32.30;27.80;;;;;;4917798;29;20507;-72
2022/03/06 11:33:57;;;;;;;4.70;3.33;;;32.70;26.90;;;;;;4921512;29;20553;-73
2022/03/06 11:36:26;;;;;;;3.10;2.80;;;32.90;26.80;;;;;;4922453;29;20543;-72
2022/03/06 11:38:53;;;;;;;8.97;4.87;;;33.40;27.10;;;;;;4921595;29;20400;-72
2022/03/06 11:41:20;;;;;;;4.10;2.90;;;33.70;26.40;;;;;;4936329;29;20412;-72
2022/03/06 11:43:48;;;;;;;5.33;3.60;;;33.70;26.60;;;;;;4920336;29;20451;-73
2022/03/06 11:46:22;;;;;;;5.00;2.90;;;34.40;26.20;;;;;;4921202;29;20494;-73
2022/03/06 11:48:48;;;;;;;4.10;3.00;;;35.30;25.50;;;;;;4921580;29;20403;-74
2022/03/06 11:51:19;;;;;;;5.33;4.07;;;36.20;25.00;;;;;;4921122;29;20426;-74
2022/03/06 11:53:48;;;;;;;6.50;3.87;;;36.90;24.80;;;;;;4935636;28;20498;-73
2022/03/06 11:56:35;;;;;;;4.63;3.60;;;37.30;24.10;;;;;;4921519;29;20415;-73
2022/03/06 11:59:01;;;;;;;4.97;3.60;;;37.70;24.10;;;;;;4921382;29;20415;-73
2022/03/06 12:01:36;;;;;;;5.23;3.70;;;38.30;23.70;;;;;;4935249;28;20423;-73
2022/03/06 12:04:07;;;;;;;4.47;4.13;;;38.90;23.10;;;;;;4919428;28;20431;-74
2022/03/06 12:06:40;;;;;;;7.67;4.30;;;38.90;22.40;;;;;;4920791;29;20980;-73
2022/03/06 12:09:16;;;;;;;5.90;4.10;;;39.10;22.90;;;;;;4901913;29;20429;-74
2022/03/06 12:11:42;;;;;;;5.37;4.13;;;39.40;22.80;;;;;;4901610;29;20412;-74
2022/03/06 12:14:17;;;;;;;4.67;3.13;;;39.90;22.70;;;;;;4916824;29;20425;-73
2022/03/06 12:17:00;;;;;;;5.90;3.60;;;40.40;22.30;;;;;;4901880;29;20412;-74
2022/03/06 12:19:31;;;;;;;3.90;3.60;;;40.80;22.60;;;;;;4917452;29;20430;-74
2022/03/06 12:22:29;;;;;;;3.77;3.13;;;41.30;22.30;;;;;;4919415;29;20408;-74
2022/03/06 12:25:14;;;;;;;4.17;3.77;;;41.90;22.20;;;;;;4926726;29;20419;-74
2022/03/06 12:27:43;;;;;;;6.10;3.50;;;42.10;22.30;;;;;;4920815;29;20439;-74
2022/03/06 12:30:11;;;;;;;4.33;3.93;;;41.60;21.30;;;;;;4920864;29;20434;-74
2022/03/06 12:32:41;;;;;;;4.87;3.83;;;40.20;21.10;;;;;;4920712;29;20471;-73
2022/03/06 12:35:17;;;;;;;5.70;3.77;;;39.70;21.70;;;;;;4920700;29;20919;-74
2022/03/06 12:37:53;;;;;;;4.43;3.63;;;39.90;21.80;;;;;;4919568;29;20947;-73
2022/03/06 12:40:22;;;;;;;4.20;3.70;;;39.20;21.40;;;;;;4920746;29;20446;-73
2022/03/06 12:42:59;;;;;;;6.93;3.90;;;38.10;21.80;;;;;;4934357;28;20483;-73
2022/03/06 12:45:25;;;;;;;6.20;4.50;;;38.30;22.60;;;;;;4919815;29;20408;-74
2022/03/06 12:47:50;;;;;;;4.87;3.70;;;39.00;22.20;;;;;;4920596;29;20411;-74
2022/03/06 12:50:19;;;;;;;6.20;4.50;;;38.90;22.10;;;;;;4921018;29;20190;-73